Caledon, United Kingdom
Current Conditions -  °F | °C
As of 1:20 AM on Monday 22 Dec 2014 (Local Time) from EGAA Reporting Station
Light Rain Light Rain  
Wind Chill: 50°   Ceiling: 600
Heat Index: 50°   Visibility: 6mi
Dew Point: 50°   Wind: 17mph
Humidity: 100%   Direction: 230°SW
Pressure: 29.74"   Gusts: NA
Location:  54.35°N, 6.84°W
Report Text: EGAA 220120Z 23015KT 9999 -RA BKN006 OVC009 10/10 Q1007
Loading
Personal Weather Stations






























Interactive Weather Map New forecast layout! Learn more

10-Day Weather Forecast

Advertisements
Track Severe Weather on mobile